sensor_id;sensor_type;location;lat;lon;timestamp;P1;durP1;ratioP1;P2;durP2;ratioP2
50683;SDS011;36654;45.042;38.994;2023-01-13T00:00:57;16.65;;;6.80;;
50683;SDS011;36654;45.042;38.994;2023-01-13T00:03:23;14.38;;;7.70;;
50683;SDS011;36654;45.042;38.994;2023-01-13T00:05:49;13.07;;;6.90;;
50683;SDS011;36654;45.042;38.994;2023-01-13T00:08:14;13.70;;;6.65;;
50683;SDS011;36654;45.042;38.994;2023-01-13T00:10:40;14.23;;;6.45;;
50683;SDS011;36654;45.042;38.994;2023-01-13T00:13:05;16.88;;;7.03;;
50683;SDS011;36654;45.042;38.994;2023-01-13T00:15:31;13.32;;;6.38;;
50683;SDS011;36654;45.042;38.994;2023-01-13T00:17:58;13.98;;;6.50;;
50683;SDS011;36654;45.042;38.994;2023-01-13T00:20:23;18.75;;;6.78;;
50683;SDS011;36654;45.042;38.994;2023-01-13T00:22:49;12.57;;;6.55;;
50683;SDS011;36654;45.042;38.994;2023-01-13T00:25:14;14.40;;;7.35;;
50683;SDS011;36654;45.042;38.994;2023-01-13T00:27:40;15.13;;;6.80;;
50683;SDS011;36654;45.042;38.994;2023-01-13T00:30:06;17.55;;;7.22;;
50683;SDS011;36654;45.042;38.994;2023-01-13T00:32:32;14.27;;;6.82;;
50683;SDS011;36654;45.042;38.994;2023-01-13T00:34:58;15.50;;;7.80;;
50683;SDS011;36654;45.042;38.994;2023-01-13T00:37:24;15.23;;;7.78;;
50683;SDS011;36654;45.042;38.994;2023-01-13T00:39:50;14.65;;;6.88;;
50683;SDS011;36654;45.042;38.994;2023-01-13T00:42:17;17.23;;;6.93;;
50683;SDS011;36654;45.042;38.994;2023-01-13T00:45:01;15.07;;;6.78;;
50683;SDS011;36654;45.042;38.994;2023-01-13T00:47:28;15.00;;;7.38;;
50683;SDS011;36654;45.042;38.994;2023-01-13T00:49:54;15.30;;;7.15;;
50683;SDS011;36654;45.042;38.994;2023-01-13T00:52:19;15.40;;;7.18;;
50683;SDS011;36654;45.042;38.994;2023-01-13T00:54:45;14.35;;;7.18;;
50683;SDS011;36654;45.042;38.994;2023-01-13T00:57:11;17.17;;;7.63;;
50683;SDS011;36654;45.042;38.994;2023-01-13T00:59:36;13.52;;;7.18;;
50683;SDS011;36654;45.042;38.994;2023-01-13T01:02:02;18.88;;;9.40;;
50683;SDS011;36654;45.042;38.994;2023-01-13T01:04:27;17.98;;;7.57;;
50683;SDS011;36654;45.042;38.994;2023-01-13T01:06:53;17.60;;;8.13;;
50683;SDS011;36654;45.042;38.994;2023-01-13T01:09:18;14.40;;;8.07;;
50683;SDS011;36654;45.042;38.994;2023-01-13T01:11:44;19.52;;;7.80;;
50683;SDS011;36654;45.042;38.994;2023-01-13T01:14:10;18.60;;;7.45;;
50683;SDS011;36654;45.042;38.994;2023-01-13T01:16:37;21.27;;;9.10;;
50683;SDS011;36654;45.042;38.994;2023-01-13T01:19:05;15.80;;;8.00;;
50683;SDS011;36654;45.042;38.994;2023-01-13T01:21:31;14.93;;;8.07;;
50683;SDS011;36654;45.042;38.994;2023-01-13T01:23:58;14.85;;;7.45;;
50683;SDS011;36654;45.042;38.994;2023-01-13T01:26:25;20.05;;;8.63;;
50683;SDS011;36654;45.042;38.994;2023-01-13T01:28:51;16.63;;;7.65;;
50683;SDS011;36654;45.042;38.994;2023-01-13T01:31:19;15.77;;;8.00;;
50683;SDS011;36654;45.042;38.994;2023-01-13T01:33:47;23.95;;;8.60;;
50683;SDS011;36654;45.042;38.994;2023-01-13T01:36:14;21.02;;;8.10;;
50683;SDS011;36654;45.042;38.994;2023-01-13T01:38:42;16.40;;;8.43;;
50683;SDS011;36654;45.042;38.994;2023-01-13T01:41:08;20.25;;;7.72;;
50683;SDS011;36654;45.042;38.994;2023-01-13T01:43:52;24.20;;;8.63;;
50683;SDS011;36654;45.042;38.994;2023-01-13T01:48:58;16.58;;;8.27;;
50683;SDS011;36654;45.042;38.994;2023-01-13T01:51:28;15.02;;;9.07;;
50683;SDS011;36654;45.042;38.994;2023-01-13T01:53:56;15.82;;;8.02;;
50683;SDS011;36654;45.042;38.994;2023-01-13T01:56:23;16.48;;;7.50;;
50683;SDS011;36654;45.042;38.994;2023-01-13T01:58:48;15.85;;;7.80;;
50683;SDS011;36654;45.042;38.994;2023-01-13T02:01:16;21.35;;;8.05;;
50683;SDS011;36654;45.042;38.994;2023-01-13T02:03:43;17.55;;;8.25;;
50683;SDS011;36654;45.042;38.994;2023-01-13T02:06:15;19.67;;;8.75;;
50683;SDS011;36654;45.042;38.994;2023-01-13T02:08:41;18.83;;;7.93;;
50683;SDS011;36654;45.042;38.994;2023-01-13T02:11:07;16.98;;;8.80;;
50683;SDS011;36654;45.042;38.994;2023-01-13T02:13:52;19.63;;;8.05;;
50683;SDS011;36654;45.042;38.994;2023-01-13T02:16:20;16.30;;;8.05;;
50683;SDS011;36654;45.042;38.994;2023-01-13T02:30:06;19.83;;;8.25;;
50683;SDS011;36654;45.042;38.994;2023-01-13T02:33:26;20.75;;;8.82;;
50683;SDS011;36654;45.042;38.994;2023-01-13T02:36:37;21.27;;;9.10;;
50683;SDS011;36654;45.042;38.994;2023-01-13T02:38:56;22.45;;;10.80;;
50683;SDS011;36654;45.042;38.994;2023-01-13T02:44:46;20.13;;;9.02;;
50683;SDS011;36654;45.042;38.994;2023-01-13T02:47:23;21.67;;;9.60;;
50683;SDS011;36654;45.042;38.994;2023-01-13T02:49:55;21.08;;;10.55;;
50683;SDS011;36654;45.042;38.994;2023-01-13T02:52:27;22.50;;;9.73;;
50683;SDS011;36654;45.042;38.994;2023-01-13T02:54:58;19.92;;;10.27;;
50683;SDS011;36654;45.042;38.994;2023-01-13T02:57:33;21.80;;;9.93;;
50683;SDS011;36654;45.042;38.994;2023-01-13T03:00:00;23.73;;;10.70;;
50683;SDS011;36654;45.042;38.994;2023-01-13T03:02:30;28.05;;;10.68;;
50683;SDS011;36654;45.042;38.994;2023-01-13T03:04:59;22.40;;;11.73;;
50683;SDS011;36654;45.042;38.994;2023-01-13T03:20:56;24.75;;;11.32;;
50683;SDS011;36654;45.042;38.994;2023-01-13T03:29:26;25.70;;;11.13;;
50683;SDS011;36654;45.042;38.994;2023-01-13T03:32:16;25.00;;;11.23;;
50683;SDS011;36654;45.042;38.994;2023-01-13T03:34:54;26.25;;;11.93;;
50683;SDS011;36654;45.042;38.994;2023-01-13T03:37:26;26.30;;;13.35;;
50683;SDS011;36654;45.042;38.994;2023-01-13T03:39:58;26.60;;;13.45;;
50683;SDS011;36654;45.042;38.994;2023-01-13T03:42:29;27.15;;;13.23;;
50683;SDS011;36654;45.042;38.994;2023-01-13T03:47:42;24.13;;;9.98;;
50683;SDS011;36654;45.042;38.994;2023-01-13T03:50:21;22.95;;;11.93;;
50683;SDS011;36654;45.042;38.994;2023-01-13T03:52:55;29.02;;;12.70;;
50683;SDS011;36654;45.042;38.994;2023-01-13T03:55:24;25.40;;;12.52;;
50683;SDS011;36654;45.042;38.994;2023-01-13T03:58:02;27.40;;;13.18;;
50683;SDS011;36654;45.042;38.994;2023-01-13T04:14:52;35.10;;;15.52;;
50683;SDS011;36654;45.042;38.994;2023-01-13T04:17:19;30.08;;;15.02;;
50683;SDS011;36654;45.042;38.994;2023-01-13T04:19:45;26.98;;;14.85;;
50683;SDS011;36654;45.042;38.994;2023-01-13T04:22:11;30.27;;;14.43;;
50683;SDS011;36654;45.042;38.994;2023-01-13T04:24:36;32.65;;;13.90;;
50683;SDS011;36654;45.042;38.994;2023-01-13T04:27:02;28.60;;;13.07;;
50683;SDS011;36654;45.042;38.994;2023-01-13T04:29:28;25.98;;;13.20;;
50683;SDS011;36654;45.042;38.994;2023-01-13T04:31:53;24.98;;;13.30;;
50683;SDS011;36654;45.042;38.994;2023-01-13T04:34:19;29.50;;;14.43;;
50683;SDS011;36654;45.042;38.994;2023-01-13T04:36:45;29.75;;;14.45;;
50683;SDS011;36654;45.042;38.994;2023-01-13T04:39:10;22.40;;;13.23;;
50683;SDS011;36654;45.042;38.994;2023-01-13T04:41:36;26.58;;;12.65;;
50683;SDS011;36654;45.042;38.994;2023-01-13T04:44:20;24.20;;;13.50;;
50683;SDS011;36654;45.042;38.994;2023-01-13T04:46:46;29.77;;;14.95;;
50683;SDS011;36654;45.042;38.994;2023-01-13T04:49:12;30.17;;;12.43;;
50683;SDS011;36654;45.042;38.994;2023-01-13T04:51:37;26.58;;;12.85;;
50683;SDS011;36654;45.042;38.994;2023-01-13T04:54:03;29.70;;;12.98;;
50683;SDS011;36654;45.042;38.994;2023-01-13T04:56:29;27.95;;;13.20;;
50683;SDS011;36654;45.042;38.994;2023-01-13T04:58:54;30.33;;;13.98;;
50683;SDS011;36654;45.042;38.994;2023-01-13T05:01:20;26.33;;;12.63;;
50683;SDS011;36654;45.042;38.994;2023-01-13T05:03:46;26.95;;;13.43;;
50683;SDS011;36654;45.042;38.994;2023-01-13T05:06:11;28.50;;;14.40;;
50683;SDS011;36654;45.042;38.994;2023-01-13T05:08:37;31.33;;;14.43;;
50683;SDS011;36654;45.042;38.994;2023-01-13T05:11:02;30.48;;;14.82;;
50683;SDS011;36654;45.042;38.994;2023-01-13T05:13:51;28.15;;;14.00;;
50683;SDS011;36654;45.042;38.994;2023-01-13T05:16:35;24.13;;;13.27;;
50683;SDS011;36654;45.042;38.994;2023-01-13T05:19:19;35.22;;;14.73;;
50683;SDS011;36654;45.042;38.994;2023-01-13T05:21:45;37.78;;;16.17;;
50683;SDS011;36654;45.042;38.994;2023-01-13T05:24:29;29.77;;;14.05;;
50683;SDS011;36654;45.042;38.994;2023-01-13T05:27:13;33.15;;;16.00;;
50683;SDS011;36654;45.042;38.994;2023-01-13T05:29:39;25.25;;;14.25;;
50683;SDS011;36654;45.042;38.994;2023-01-13T05:32:05;27.45;;;14.10;;
50683;SDS011;36654;45.042;38.994;2023-01-13T05:34:32;34.33;;;16.45;;
50683;SDS011;36654;45.042;38.994;2023-01-13T05:36:58;35.63;;;17.83;;
50683;SDS011;36654;45.042;38.994;2023-01-13T05:39:23;31.55;;;15.85;;
50683;SDS011;36654;45.042;38.994;2023-01-13T05:41:49;34.17;;;16.58;;
50683;SDS011;36654;45.042;38.994;2023-01-13T05:44:33;33.58;;;15.20;;
50683;SDS011;36654;45.042;38.994;2023-01-13T05:46:59;33.83;;;16.77;;
50683;SDS011;36654;45.042;38.994;2023-01-13T05:49:24;33.33;;;17.15;;
50683;SDS011;36654;45.042;38.994;2023-01-13T05:51:50;33.08;;;16.10;;
50683;SDS011;36654;45.042;38.994;2023-01-13T05:54:15;32.55;;;16.17;;
50683;SDS011;36654;45.042;38.994;2023-01-13T05:56:41;33.20;;;16.25;;
50683;SDS011;36654;45.042;38.994;2023-01-13T05:59:07;28.23;;;15.55;;
50683;SDS011;36654;45.042;38.994;2023-01-13T06:01:32;35.35;;;15.63;;
50683;SDS011;36654;45.042;38.994;2023-01-13T06:03:58;32.00;;;17.35;;
50683;SDS011;36654;45.042;38.994;2023-01-13T06:06:23;36.83;;;16.88;;
50683;SDS011;36654;45.042;38.994;2023-01-13T06:08:49;46.20;;;18.52;;
50683;SDS011;36654;45.042;38.994;2023-01-13T06:11:14;31.02;;;16.75;;
50683;SDS011;36654;45.042;38.994;2023-01-13T06:13:40;37.92;;;17.13;;
50683;SDS011;36654;45.042;38.994;2023-01-13T06:16:05;37.75;;;18.77;;
50683;SDS011;36654;45.042;38.994;2023-01-13T06:18:31;45.33;;;21.17;;
50683;SDS011;36654;45.042;38.994;2023-01-13T06:20:57;43.25;;;20.73;;
50683;SDS011;36654;45.042;38.994;2023-01-13T06:23:22;54.08;;;21.65;;
50683;SDS011;36654;45.042;38.994;2023-01-13T06:28:23;45.17;;;22.30;;
50683;SDS011;36654;45.042;38.994;2023-01-13T06:30:50;47.55;;;22.20;;
50683;SDS011;36654;45.042;38.994;2023-01-13T06:33:21;53.40;;;24.20;;
50683;SDS011;36654;45.042;38.994;2023-01-13T06:35:55;56.50;;;28.05;;
50683;SDS011;36654;45.042;38.994;2023-01-13T06:40:49;57.75;;;31.25;;
50683;SDS011;36654;45.042;38.994;2023-01-13T06:43:15;63.22;;;31.85;;
50683;SDS011;36654;45.042;38.994;2023-01-13T06:45:42;59.10;;;29.88;;
50683;SDS011;36654;45.042;38.994;2023-01-13T06:48:09;54.13;;;28.75;;
50683;SDS011;36654;45.042;38.994;2023-01-13T06:50:34;58.92;;;24.50;;
50683;SDS011;36654;45.042;38.994;2023-01-13T06:53:00;49.50;;;24.20;;
50683;SDS011;36654;45.042;38.994;2023-01-13T06:55:26;49.72;;;24.48;;
50683;SDS011;36654;45.042;38.994;2023-01-13T06:57:55;54.47;;;26.13;;
50683;SDS011;36654;45.042;38.994;2023-01-13T07:00:22;56.53;;;28.08;;
50683;SDS011;36654;45.042;38.994;2023-01-13T07:02:49;52.25;;;26.30;;
50683;SDS011;36654;45.042;38.994;2023-01-13T07:05:15;51.50;;;26.38;;
50683;SDS011;36654;45.042;38.994;2023-01-13T07:07:42;56.97;;;28.17;;
50683;SDS011;36654;45.042;38.994;2023-01-13T07:10:08;53.22;;;26.90;;
50683;SDS011;36654;45.042;38.994;2023-01-13T07:12:39;67.40;;;31.13;;
50683;SDS011;36654;45.042;38.994;2023-01-13T07:15:24;56.13;;;26.25;;
50683;SDS011;36654;45.042;38.994;2023-01-13T07:17:51;59.15;;;28.52;;
50683;SDS011;36654;45.042;38.994;2023-01-13T07:20:17;52.58;;;27.83;;
50683;SDS011;36654;45.042;38.994;2023-01-13T07:22:43;72.13;;;27.95;;
50683;SDS011;36654;45.042;38.994;2023-01-13T07:25:09;66.15;;;29.08;;
50683;SDS011;36654;45.042;38.994;2023-01-13T07:27:37;60.53;;;28.85;;
50683;SDS011;36654;45.042;38.994;2023-01-13T07:30:06;55.45;;;27.67;;
50683;SDS011;36654;45.042;38.994;2023-01-13T07:32:35;60.65;;;27.92;;
50683;SDS011;36654;45.042;38.994;2023-01-13T07:35:00;60.17;;;28.35;;
50683;SDS011;36654;45.042;38.994;2023-01-13T07:37:30;58.63;;;26.75;;
50683;SDS011;36654;45.042;38.994;2023-01-13T07:39:57;64.45;;;28.10;;
50683;SDS011;36654;45.042;38.994;2023-01-13T07:42:26;54.80;;;26.45;;
50683;SDS011;36654;45.042;38.994;2023-01-13T07:45:10;55.15;;;27.90;;
50683;SDS011;36654;45.042;38.994;2023-01-13T07:47:36;58.90;;;28.10;;
50683;SDS011;36654;45.042;38.994;2023-01-13T07:50:02;58.22;;;27.60;;
50683;SDS011;36654;45.042;38.994;2023-01-13T07:52:30;56.40;;;26.08;;
50683;SDS011;36654;45.042;38.994;2023-01-13T07:55:01;56.45;;;26.10;;
50683;SDS011;36654;45.042;38.994;2023-01-13T07:57:27;62.63;;;26.85;;
50683;SDS011;36654;45.042;38.994;2023-01-13T07:59:52;60.75;;;29.67;;
50683;SDS011;36654;45.042;38.994;2023-01-13T08:02:18;50.78;;;27.52;;
50683;SDS011;36654;45.042;38.994;2023-01-13T08:04:44;51.85;;;25.77;;
50683;SDS011;36654;45.042;38.994;2023-01-13T08:07:12;54.53;;;27.83;;
50683;SDS011;36654;45.042;38.994;2023-01-13T08:09:38;51.03;;;26.90;;
50683;SDS011;36654;45.042;38.994;2023-01-13T08:12:04;51.63;;;27.00;;
50683;SDS011;36654;45.042;38.994;2023-01-13T08:14:51;61.40;;;27.75;;
50683;SDS011;36654;45.042;38.994;2023-01-13T08:17:22;55.88;;;26.35;;
50683;SDS011;36654;45.042;38.994;2023-01-13T08:19:48;64.57;;;26.48;;
50683;SDS011;36654;45.042;38.994;2023-01-13T08:22:14;53.50;;;26.23;;
50683;SDS011;36654;45.042;38.994;2023-01-13T08:24:42;56.67;;;26.40;;
50683;SDS011;36654;45.042;38.994;2023-01-13T08:27:10;52.03;;;24.42;;
50683;SDS011;36654;45.042;38.994;2023-01-13T08:29:35;55.47;;;23.95;;
50683;SDS011;36654;45.042;38.994;2023-01-13T08:32:01;55.90;;;27.67;;
50683;SDS011;36654;45.042;38.994;2023-01-13T08:34:27;61.15;;;25.92;;
50683;SDS011;36654;45.042;38.994;2023-01-13T08:36:52;46.42;;;24.77;;
50683;SDS011;36654;45.042;38.994;2023-01-13T08:39:18;50.15;;;25.70;;
50683;SDS011;36654;45.042;38.994;2023-01-13T08:41:46;57.50;;;26.60;;
50683;SDS011;36654;45.042;38.994;2023-01-13T08:44:23;62.10;;;27.45;;
50683;SDS011;36654;45.042;38.994;2023-01-13T08:46:53;50.60;;;25.98;;
50683;SDS011;36654;45.042;38.994;2023-01-13T08:49:20;51.15;;;24.83;;
50683;SDS011;36654;45.042;38.994;2023-01-13T08:51:47;51.40;;;23.58;;
50683;SDS011;36654;45.042;38.994;2023-01-13T08:54:13;50.05;;;25.20;;
50683;SDS011;36654;45.042;38.994;2023-01-13T08:56:40;47.42;;;23.92;;
50683;SDS011;36654;45.042;38.994;2023-01-13T08:59:08;45.10;;;23.88;;
50683;SDS011;36654;45.042;38.994;2023-01-13T09:01:36;59.88;;;25.55;;
50683;SDS011;36654;45.042;38.994;2023-01-13T09:04:04;53.47;;;25.02;;
50683;SDS011;36654;45.042;38.994;2023-01-13T09:06:33;47.75;;;24.52;;
50683;SDS011;36654;45.042;38.994;2023-01-13T09:09:01;54.97;;;26.45;;
50683;SDS011;36654;45.042;38.994;2023-01-13T09:11:29;55.35;;;25.90;;
50683;SDS011;36654;45.042;38.994;2023-01-13T09:14:32;51.72;;;23.35;;
50683;SDS011;36654;45.042;38.994;2023-01-13T09:17:03;49.35;;;23.58;;
50683;SDS011;36654;45.042;38.994;2023-01-13T09:19:29;44.10;;;24.83;;
50683;SDS011;36654;45.042;38.994;2023-01-13T09:21:55;44.40;;;21.50;;
50683;SDS011;36654;45.042;38.994;2023-01-13T09:24:22;52.05;;;25.95;;
50683;SDS011;36654;45.042;38.994;2023-01-13T09:26:48;48.80;;;24.73;;
50683;SDS011;36654;45.042;38.994;2023-01-13T09:29:13;46.90;;;23.30;;
50683;SDS011;36654;45.042;38.994;2023-01-13T09:31:40;43.75;;;21.90;;
50683;SDS011;36654;45.042;38.994;2023-01-13T09:34:06;48.08;;;22.83;;
50683;SDS011;36654;45.042;38.994;2023-01-13T09:36:53;48.35;;;23.45;;
50683;SDS011;36654;45.042;38.994;2023-01-13T09:39:18;45.95;;;23.92;;
50683;SDS011;36654;45.042;38.994;2023-01-13T09:41:45;55.90;;;27.52;;
50683;SDS011;36654;45.042;38.994;2023-01-13T09:44:39;43.28;;;23.23;;
50683;SDS011;36654;45.042;38.994;2023-01-13T09:49:53;45.03;;;23.02;;
50683;SDS011;36654;45.042;38.994;2023-01-13T09:52:26;51.85;;;23.73;;
50683;SDS011;36654;45.042;38.994;2023-01-13T09:55:08;52.17;;;25.52;;
50683;SDS011;36654;45.042;38.994;2023-01-13T09:57:38;43.78;;;24.58;;
50683;SDS011;36654;45.042;38.994;2023-01-13T10:00:20;49.70;;;24.60;;
50683;SDS011;36654;45.042;38.994;2023-01-13T10:05:53;51.22;;;23.88;;
50683;SDS011;36654;45.042;38.994;2023-01-13T10:10:58;46.20;;;23.45;;
50683;SDS011;36654;45.042;38.994;2023-01-13T10:13:45;56.83;;;23.65;;
50683;SDS011;36654;45.042;38.994;2023-01-13T10:19:15;44.17;;;24.85;;
50683;SDS011;36654;45.042;38.994;2023-01-13T10:24:43;51.53;;;22.65;;
50683;SDS011;36654;45.042;38.994;2023-01-13T10:28:01;53.85;;;24.50;;
50683;SDS011;36654;45.042;38.994;2023-01-13T10:30:33;58.97;;;24.10;;
50683;SDS011;36654;45.042;38.994;2023-01-13T10:33:08;49.88;;;26.67;;
50683;SDS011;36654;45.042;38.994;2023-01-13T10:35:49;49.05;;;24.38;;
50683;SDS011;36654;45.042;38.994;2023-01-13T10:38:18;53.58;;;26.02;;
50683;SDS011;36654;45.042;38.994;2023-01-13T10:40:56;47.28;;;22.55;;
50683;SDS011;36654;45.042;38.994;2023-01-13T10:43:23;45.38;;;22.40;;
50683;SDS011;36654;45.042;38.994;2023-01-13T10:46:01;48.00;;;23.08;;
50683;SDS011;36654;45.042;38.994;2023-01-13T10:51:17;36.88;;;19.95;;
50683;SDS011;36654;45.042;38.994;2023-01-13T10:56:17;41.15;;;21.98;;
50683;SDS011;36654;45.042;38.994;2023-01-13T10:58:44;36.63;;;18.85;;
50683;SDS011;36654;45.042;38.994;2023-01-13T11:01:23;31.95;;;18.38;;
50683;SDS011;36654;45.042;38.994;2023-01-13T11:03:54;39.58;;;18.42;;
50683;SDS011;36654;45.042;38.994;2023-01-13T11:06:23;34.67;;;18.05;;
50683;SDS011;36654;45.042;38.994;2023-01-13T11:08:53;40.58;;;21.02;;
50683;SDS011;36654;45.042;38.994;2023-01-13T11:14:04;34.92;;;17.58;;
50683;SDS011;36654;45.042;38.994;2023-01-13T11:17:42;36.97;;;19.83;;
50683;SDS011;36654;45.042;38.994;2023-01-13T11:20:06;38.28;;;19.25;;
50683;SDS011;36654;45.042;38.994;2023-01-13T11:22:48;40.53;;;18.58;;
50683;SDS011;36654;45.042;38.994;2023-01-13T11:25:24;40.60;;;21.58;;
50683;SDS011;36654;45.042;38.994;2023-01-13T11:31:12;38.50;;;18.45;;
50683;SDS011;36654;45.042;38.994;2023-01-13T11:34:21;41.42;;;20.15;;
50683;SDS011;36654;45.042;38.994;2023-01-13T11:36:50;35.72;;;19.58;;
50683;SDS011;36654;45.042;38.994;2023-01-13T11:42:03;36.85;;;18.05;;
50683;SDS011;36654;45.042;38.994;2023-01-13T11:45:02;39.75;;;19.33;;
50683;SDS011;36654;45.042;38.994;2023-01-13T11:47:29;36.40;;;20.48;;
50683;SDS011;36654;45.042;38.994;2023-01-13T11:49:56;36.47;;;19.08;;
50683;SDS011;36654;45.042;38.994;2023-01-13T11:52:48;36.60;;;19.95;;
50683;SDS011;36654;45.042;38.994;2023-01-13T12:03:46;38.05;;;19.45;;
50683;SDS011;36654;45.042;38.994;2023-01-13T12:16:50;40.42;;;20.67;;
50683;SDS011;36654;45.042;38.994;2023-01-13T12:22:06;37.30;;;18.23;;
50683;SDS011;36654;45.042;38.994;2023-01-13T12:25:11;29.40;;;16.83;;
50683;SDS011;36654;45.042;38.994;2023-01-13T12:28:15;32.92;;;17.83;;
50683;SDS011;36654;45.042;38.994;2023-01-13T12:30:49;35.88;;;17.65;;
50683;SDS011;36654;45.042;38.994;2023-01-13T12:36:25;27.50;;;15.82;;
50683;SDS011;36654;45.042;38.994;2023-01-13T12:39:15;33.15;;;18.27;;
50683;SDS011;36654;45.042;38.994;2023-01-13T12:42:04;38.95;;;18.83;;
50683;SDS011;36654;45.042;38.994;2023-01-13T12:47:38;43.83;;;18.45;;
50683;SDS011;36654;45.042;38.994;2023-01-13T12:55:19;31.77;;;16.25;;
50683;SDS011;36654;45.042;38.994;2023-01-13T13:00:34;35.17;;;17.67;;
50683;SDS011;36654;45.042;38.994;2023-01-13T13:05:43;42.30;;;16.85;;
50683;SDS011;36654;45.042;38.994;2023-01-13T13:10:55;37.38;;;17.48;;
50683;SDS011;36654;45.042;38.994;2023-01-13T13:13:46;33.20;;;18.33;;
50683;SDS011;36654;45.042;38.994;2023-01-13T13:22:35;28.65;;;14.13;;
50683;SDS011;36654;45.042;38.994;2023-01-13T13:24:31;28.77;;;13.45;;
50683;SDS011;36654;45.042;38.994;2023-01-13T13:26:56;28.13;;;14.07;;
50683;SDS011;36654;45.042;38.994;2023-01-13T13:40:54;30.20;;;13.02;;
50683;SDS011;36654;45.042;38.994;2023-01-13T13:43:39;36.17;;;16.15;;
50683;SDS011;36654;45.042;38.994;2023-01-13T13:46:26;30.45;;;13.95;;
50683;SDS011;36654;45.042;38.994;2023-01-13T13:49:16;31.45;;;15.07;;
50683;SDS011;36654;45.042;38.994;2023-01-13T13:54:28;31.17;;;15.18;;
50683;SDS011;36654;45.042;38.994;2023-01-13T13:56:55;30.45;;;15.02;;
50683;SDS011;36654;45.042;38.994;2023-01-13T13:59:23;31.35;;;15.45;;
50683;SDS011;36654;45.042;38.994;2023-01-13T14:01:54;35.38;;;16.95;;
50683;SDS011;36654;45.042;38.994;2023-01-13T14:04:34;34.58;;;15.55;;
50683;SDS011;36654;45.042;38.994;2023-01-13T14:07:02;32.65;;;16.00;;
50683;SDS011;36654;45.042;38.994;2023-01-13T14:09:46;36.08;;;16.73;;
50683;SDS011;36654;45.042;38.994;2023-01-13T14:12:20;28.70;;;15.57;;
50683;SDS011;36654;45.042;38.994;2023-01-13T14:14:48;32.42;;;15.07;;
50683;SDS011;36654;45.042;38.994;2023-01-13T14:17:32;39.42;;;17.58;;
50683;SDS011;36654;45.042;38.994;2023-01-13T14:20:03;32.28;;;15.98;;
50683;SDS011;36654;45.042;38.994;2023-01-13T14:22:32;32.65;;;16.45;;
50683;SDS011;36654;45.042;38.994;2023-01-13T14:24:58;29.63;;;16.40;;
50683;SDS011;36654;45.042;38.994;2023-01-13T14:27:26;26.65;;;14.25;;
50683;SDS011;36654;45.042;38.994;2023-01-13T14:29:54;33.00;;;15.85;;
50683;SDS011;36654;45.042;38.994;2023-01-13T14:32:23;32.75;;;16.55;;
50683;SDS011;36654;45.042;38.994;2023-01-13T14:34:56;35.75;;;15.45;;
50683;SDS011;36654;45.042;38.994;2023-01-13T14:39:59;29.55;;;14.65;;
50683;SDS011;36654;45.042;38.994;2023-01-13T14:42:24;29.92;;;15.38;;
50683;SDS011;36654;45.042;38.994;2023-01-13T14:44:52;30.05;;;15.63;;
50683;SDS011;36654;45.042;38.994;2023-01-13T14:52:47;44.33;;;20.77;;
50683;SDS011;36654;45.042;38.994;2023-01-13T14:58:03;46.28;;;21.80;;
50683;SDS011;36654;45.042;38.994;2023-01-13T15:00:46;39.25;;;19.48;;
50683;SDS011;36654;45.042;38.994;2023-01-13T15:03:17;36.78;;;18.77;;
50683;SDS011;36654;45.042;38.994;2023-01-13T15:05:53;35.92;;;18.50;;
50683;SDS011;36654;45.042;38.994;2023-01-13T15:08:26;38.53;;;18.60;;
50683;SDS011;36654;45.042;38.994;2023-01-13T15:10:58;41.00;;;19.20;;
50683;SDS011;36654;45.042;38.994;2023-01-13T15:13:33;42.90;;;19.13;;
50683;SDS011;36654;45.042;38.994;2023-01-13T15:16:11;43.50;;;18.33;;
50683;SDS011;36654;45.042;38.994;2023-01-13T15:18:37;36.08;;;19.17;;
50683;SDS011;36654;45.042;38.994;2023-01-13T15:21:05;40.25;;;19.95;;
50683;SDS011;36654;45.042;38.994;2023-01-13T15:23:32;46.85;;;25.60;;
50683;SDS011;36654;45.042;38.994;2023-01-13T15:25:58;45.28;;;25.95;;
50683;SDS011;36654;45.042;38.994;2023-01-13T15:28:24;49.00;;;27.83;;
50683;SDS011;36654;45.042;38.994;2023-01-13T15:30:52;45.42;;;27.85;;
50683;SDS011;36654;45.042;38.994;2023-01-13T15:33:19;49.28;;;27.83;;
50683;SDS011;36654;45.042;38.994;2023-01-13T15:35:46;51.42;;;27.60;;
50683;SDS011;36654;45.042;38.994;2023-01-13T15:38:15;52.75;;;29.10;;
50683;SDS011;36654;45.042;38.994;2023-01-13T15:40:42;51.15;;;27.55;;
50683;SDS011;36654;45.042;38.994;2023-01-13T15:43:15;49.78;;;28.85;;
50683;SDS011;36654;45.042;38.994;2023-01-13T15:46:01;55.15;;;33.72;;
50683;SDS011;36654;45.042;38.994;2023-01-13T15:48:46;59.28;;;33.55;;
50683;SDS011;36654;45.042;38.994;2023-01-13T15:51:12;60.25;;;33.42;;
50683;SDS011;36654;45.042;38.994;2023-01-13T15:53:38;55.78;;;31.58;;
50683;SDS011;36654;45.042;38.994;2023-01-13T15:56:05;56.58;;;30.27;;
50683;SDS011;36654;45.042;38.994;2023-01-13T15:58:37;57.03;;;31.92;;
50683;SDS011;36654;45.042;38.994;2023-01-13T16:01:03;58.65;;;31.65;;
50683;SDS011;36654;45.042;38.994;2023-01-13T16:03:29;54.08;;;33.80;;
50683;SDS011;36654;45.042;38.994;2023-01-13T16:05:54;62.45;;;37.80;;
50683;SDS011;36654;45.042;38.994;2023-01-13T16:08:21;62.97;;;35.45;;
50683;SDS011;36654;45.042;38.994;2023-01-13T16:10:47;60.35;;;38.58;;
50683;SDS011;36654;45.042;38.994;2023-01-13T16:13:14;64.68;;;38.20;;
50683;SDS011;36654;45.042;38.994;2023-01-13T16:15:47;65.72;;;38.95;;
50683;SDS011;36654;45.042;38.994;2023-01-13T16:18:18;60.00;;;38.03;;
50683;SDS011;36654;45.042;38.994;2023-01-13T16:20:48;60.00;;;37.63;;
50683;SDS011;36654;45.042;38.994;2023-01-13T16:23:16;55.67;;;34.05;;
50683;SDS011;36654;45.042;38.994;2023-01-13T16:25:42;59.42;;;36.22;;
50683;SDS011;36654;45.042;38.994;2023-01-13T16:28:28;60.53;;;38.30;;
50683;SDS011;36654;45.042;38.994;2023-01-13T16:30:54;65.45;;;33.40;;
50683;SDS011;36654;45.042;38.994;2023-01-13T16:33:19;49.72;;;33.80;;
50683;SDS011;36654;45.042;38.994;2023-01-13T16:35:45;58.42;;;35.35;;
50683;SDS011;36654;45.042;38.994;2023-01-13T16:38:16;66.53;;;33.88;;
50683;SDS011;36654;45.042;38.994;2023-01-13T16:40:43;58.50;;;32.35;;
50683;SDS011;36654;45.042;38.994;2023-01-13T16:43:12;59.90;;;31.98;;
50683;SDS011;36654;45.042;38.994;2023-01-13T16:45:38;58.45;;;30.48;;
50683;SDS011;36654;45.042;38.994;2023-01-13T16:48:04;64.10;;;30.90;;
50683;SDS011;36654;45.042;38.994;2023-01-13T16:50:40;71.70;;;35.90;;
50683;SDS011;36654;45.042;38.994;2023-01-13T16:53:07;60.22;;;32.47;;
50683;SDS011;36654;45.042;38.994;2023-01-13T16:55:37;116.32;;;52.42;;
50683;SDS011;36654;45.042;38.994;2023-01-13T16:58:04;63.67;;;31.90;;
50683;SDS011;36654;45.042;38.994;2023-01-13T17:00:30;82.13;;;34.65;;
50683;SDS011;36654;45.042;38.994;2023-01-13T17:02:57;63.92;;;33.80;;
50683;SDS011;36654;45.042;38.994;2023-01-13T17:05:25;71.43;;;32.88;;
50683;SDS011;36654;45.042;38.994;2023-01-13T17:07:50;64.78;;;32.38;;
50683;SDS011;36654;45.042;38.994;2023-01-13T17:10:20;66.90;;;33.22;;